sensor_id;sensor_type;location;lat;lon;timestamp;pressure;altitude;pressure_sealevel;temperature;humidity
57568;BME280;43403;51.948;5.922;2023-06-22T00:00:58;101860.38;;;21.60;100.00
57568;BME280;43403;51.948;5.922;2023-06-22T00:03:25;101862.16;;;21.53;100.00
57568;BME280;43403;51.948;5.922;2023-06-22T00:05:53;101864.78;;;21.46;100.00
57568;BME280;43403;51.948;5.922;2023-06-22T00:08:20;101860.78;;;21.42;100.00
57568;BME280;43403;51.948;5.922;2023-06-22T00:10:46;101862.31;;;21.45;99.12
57568;BME280;43403;51.948;5.922;2023-06-22T00:13:14;101865.78;;;21.45;98.01
57568;BME280;43403;51.948;5.922;2023-06-22T00:15:41;101857.41;;;21.48;95.36
57568;BME280;43403;51.948;5.922;2023-06-22T00:18:09;101850.41;;;21.47;95.04
57568;BME280;43403;51.948;5.922;2023-06-22T00:20:37;101841.41;;;21.48;94.35
57568;BME280;43403;51.948;5.922;2023-06-22T00:23:05;101841.78;;;21.45;92.75
57568;BME280;43403;51.948;5.922;2023-06-22T00:25:35;101846.28;;;21.45;93.72
57568;BME280;43403;51.948;5.922;2023-06-22T00:28:03;101856.31;;;21.43;94.92
57568;BME280;43403;51.948;5.922;2023-06-22T00:30:30;101856.22;;;21.36;97.43
57568;BME280;43403;51.948;5.922;2023-06-22T00:32:58;101843.47;;;21.31;98.64
57568;BME280;43403;51.948;5.922;2023-06-22T00:35:26;101837.06;;;21.26;97.89
57568;BME280;43403;51.948;5.922;2023-06-22T00:37:56;101839.09;;;21.24;96.66
57568;BME280;43403;51.948;5.922;2023-06-22T00:40:32;101848.09;;;21.23;96.76
57568;BME280;43403;51.948;5.922;2023-06-22T00:42:59;101851.00;;;21.21;98.88
57568;BME280;43403;51.948;5.922;2023-06-22T00:45:26;101846.47;;;21.22;97.25
57568;BME280;43403;51.948;5.922;2023-06-22T00:47:54;101831.06;;;21.17;96.94
57568;BME280;43403;51.948;5.922;2023-06-22T00:50:25;101839.69;;;21.19;96.78
57568;BME280;43403;51.948;5.922;2023-06-22T00:52:56;101843.75;;;21.15;99.03
57568;BME280;43403;51.948;5.922;2023-06-22T00:55:25;101846.81;;;21.12;98.47
57568;BME280;43403;51.948;5.922;2023-06-22T00:57:54;101843.31;;;21.11;98.23
57568;BME280;43403;51.948;5.922;2023-06-22T01:00:23;101850.28;;;21.12;99.33
57568;BME280;43403;51.948;5.922;2023-06-22T01:02:52;101854.16;;;21.10;99.48
57568;BME280;43403;51.948;5.922;2023-06-22T01:05:21;101848.38;;;21.06;97.77
57568;BME280;43403;51.948;5.922;2023-06-22T01:08:12;101846.13;;;21.03;99.93
57568;BME280;43403;51.948;5.922;2023-06-22T01:10:46;101847.31;;;21.01;100.00
57568;BME280;43403;51.948;5.922;2023-06-22T01:16:05;101844.13;;;20.90;100.00
57568;BME280;43403;51.948;5.922;2023-06-22T01:18:36;101845.25;;;20.81;100.00
57568;BME280;43403;51.948;5.922;2023-06-22T01:21:06;101842.53;;;20.74;100.00
57568;BME280;43403;51.948;5.922;2023-06-22T01:23:42;101836.94;;;20.69;100.00
57568;BME280;43403;51.948;5.922;2023-06-22T01:26:17;101846.16;;;20.67;100.00
57568;BME280;43403;51.948;5.922;2023-06-22T01:28:50;101837.41;;;20.58;100.00
57568;BME280;43403;51.948;5.922;2023-06-22T01:31:19;101829.34;;;20.51;100.00
57568;BME280;43403;51.948;5.922;2023-06-22T01:33:58;101828.00;;;20.41;100.00
57568;BME280;43403;51.948;5.922;2023-06-22T01:36:26;101829.81;;;20.40;100.00
57568;BME280;43403;51.948;5.922;2023-06-22T01:38:53;101831.19;;;20.36;100.00
57568;BME280;43403;51.948;5.922;2023-06-22T01:41:20;101839.94;;;20.30;100.00
57568;BME280;43403;51.948;5.922;2023-06-22T01:43:48;101834.38;;;20.25;100.00
57568;BME280;43403;51.948;5.922;2023-06-22T01:46:15;101824.34;;;20.27;100.00
57568;BME280;43403;51.948;5.922;2023-06-22T01:48:42;101819.56;;;20.22;100.00
57568;BME280;43403;51.948;5.922;2023-06-22T01:51:09;101820.94;;;20.18;100.00
57568;BME280;43403;51.948;5.922;2023-06-22T01:53:36;101813.59;;;20.20;100.00
57568;BME280;43403;51.948;5.922;2023-06-22T01:56:02;101812.25;;;20.09;100.00
57568;BME280;43403;51.948;5.922;2023-06-22T01:58:30;101821.22;;;20.08;100.00
57568;BME280;43403;51.948;5.922;2023-06-22T02:03:31;101817.75;;;20.08;100.00
57568;BME280;43403;51.948;5.922;2023-06-22T02:06:08;101819.78;;;20.06;100.00
57568;BME280;43403;51.948;5.922;2023-06-22T02:08:41;101832.91;;;20.07;100.00
57568;BME280;43403;51.948;5.922;2023-06-22T02:11:10;101824.53;;;20.10;100.00
57568;BME280;43403;51.948;5.922;2023-06-22T02:13:39;101824.00;;;20.15;100.00
57568;BME280;43403;51.948;5.922;2023-06-22T02:16:11;101832.16;;;20.13;100.00
57568;BME280;43403;51.948;5.922;2023-06-22T02:18:38;101823.72;;;20.10;100.00
57568;BME280;43403;51.948;5.922;2023-06-22T02:21:06;101826.94;;;20.05;100.00
57568;BME280;43403;51.948;5.922;2023-06-22T02:23:33;101821.25;;;19.93;100.00
57568;BME280;43403;51.948;5.922;2023-06-22T02:26:03;101818.13;;;19.90;100.00
57568;BME280;43403;51.948;5.922;2023-06-22T02:28:29;101810.59;;;19.79;100.00
57568;BME280;43403;51.948;5.922;2023-06-22T02:30:56;101810.75;;;19.77;100.00
57568;BME280;43403;51.948;5.922;2023-06-22T02:33:23;101806.31;;;19.69;100.00
57568;BME280;43403;51.948;5.922;2023-06-22T02:35:49;101801.66;;;19.71;100.00
57568;BME280;43403;51.948;5.922;2023-06-22T02:38:16;101804.16;;;19.73;100.00
57568;BME280;43403;51.948;5.922;2023-06-22T02:40:43;101804.34;;;19.71;100.00
57568;BME280;43403;51.948;5.922;2023-06-22T02:43:10;101797.53;;;19.69;100.00
57568;BME280;43403;51.948;5.922;2023-06-22T02:45:37;101802.03;;;19.68;100.00
57568;BME280;43403;51.948;5.922;2023-06-22T02:48:04;101800.75;;;19.64;100.00
57568;BME280;43403;51.948;5.922;2023-06-22T02:50:30;101804.94;;;19.59;100.00
57568;BME280;43403;51.948;5.922;2023-06-22T02:52:57;101803.75;;;19.61;100.00
57568;BME280;43403;51.948;5.922;2023-06-22T02:55:24;101810.75;;;19.62;100.00
57568;BME280;43403;51.948;5.922;2023-06-22T02:57:54;101807.44;;;19.60;100.00
57568;BME280;43403;51.948;5.922;2023-06-22T03:00:21;101803.66;;;19.54;100.00
57568;BME280;43403;51.948;5.922;2023-06-22T03:02:49;101795.56;;;19.48;100.00
57568;BME280;43403;51.948;5.922;2023-06-22T03:05:16;101798.53;;;19.53;100.00
57568;BME280;43403;51.948;5.922;2023-06-22T03:07:44;101793.19;;;19.53;100.00
57568;BME280;43403;51.948;5.922;2023-06-22T03:10:12;101789.50;;;19.54;100.00
57568;BME280;43403;51.948;5.922;2023-06-22T03:12:39;101789.91;;;19.51;100.00
57568;BME280;43403;51.948;5.922;2023-06-22T03:15:07;101794.84;;;19.54;100.00
57568;BME280;43403;51.948;5.922;2023-06-22T03:17:35;101793.84;;;19.55;100.00
57568;BME280;43403;51.948;5.922;2023-06-22T03:20:03;101794.13;;;19.60;100.00
57568;BME280;43403;51.948;5.922;2023-06-22T03:22:37;101791.66;;;19.59;100.00
57568;BME280;43403;51.948;5.922;2023-06-22T03:25:04;101782.56;;;19.53;100.00
57568;BME280;43403;51.948;5.922;2023-06-22T03:27:36;101781.09;;;19.50;100.00
57568;BME280;43403;51.948;5.922;2023-06-22T03:30:04;101774.44;;;19.46;100.00
57568;BME280;43403;51.948;5.922;2023-06-22T03:32:31;101762.66;;;19.49;100.00
57568;BME280;43403;51.948;5.922;2023-06-22T03:34:57;101766.47;;;19.46;100.00
57568;BME280;43403;51.948;5.922;2023-06-22T03:37:26;101769.34;;;19.45;100.00
57568;BME280;43403;51.948;5.922;2023-06-22T03:39:53;101770.88;;;19.39;100.00
57568;BME280;43403;51.948;5.922;2023-06-22T03:42:19;101773.72;;;19.38;100.00
57568;BME280;43403;51.948;5.922;2023-06-22T03:44:46;101764.06;;;19.36;100.00
57568;BME280;43403;51.948;5.922;2023-06-22T03:47:13;101773.72;;;19.38;100.00
57568;BME280;43403;51.948;5.922;2023-06-22T03:49:39;101766.38;;;19.40;100.00
57568;BME280;43403;51.948;5.922;2023-06-22T03:52:06;101763.72;;;19.40;100.00
57568;BME280;43403;51.948;5.922;2023-06-22T03:54:33;101765.56;;;19.39;100.00
57568;BME280;43403;51.948;5.922;2023-06-22T03:56:59;101765.84;;;19.44;100.00
57568;BME280;43403;51.948;5.922;2023-06-22T03:59:26;101764.38;;;19.42;100.00
57568;BME280;43403;51.948;5.922;2023-06-22T04:01:52;101757.41;;;19.41;100.00
57568;BME280;43403;51.948;5.922;2023-06-22T04:04:19;101759.88;;;19.42;100.00
57568;BME280;43403;51.948;5.922;2023-06-22T04:06:46;101756.22;;;19.43;100.00
57568;BME280;43403;51.948;5.922;2023-06-22T04:09:13;101765.66;;;19.46;100.00
57568;BME280;43403;51.948;5.922;2023-06-22T04:11:39;101763.00;;;19.46;100.00
57568;BME280;43403;51.948;5.922;2023-06-22T04:14:06;101763.09;;;19.52;100.00
57568;BME280;43403;51.948;5.922;2023-06-22T04:16:33;101766.03;;;19.58;100.00
57568;BME280;43403;51.948;5.922;2023-06-22T04:18:59;101764.66;;;19.62;100.00
57568;BME280;43403;51.948;5.922;2023-06-22T04:21:26;101769.44;;;19.66;100.00
57568;BME280;43403;51.948;5.922;2023-06-22T04:23:53;101765.41;;;19.70;100.00
57568;BME280;43403;51.948;5.922;2023-06-22T04:26:19;101766.22;;;19.71;100.00
57568;BME280;43403;51.948;5.922;2023-06-22T04:28:48;101764.88;;;19.75;100.00
57568;BME280;43403;51.948;5.922;2023-06-22T04:31:18;101765.50;;;19.77;100.00
57568;BME280;43403;51.948;5.922;2023-06-22T04:33:45;101760.81;;;19.79;100.00
57568;BME280;43403;51.948;5.922;2023-06-22T04:36:12;101771.13;;;19.82;100.00
57568;BME280;43403;51.948;5.922;2023-06-22T04:38:41;101767.25;;;19.85;100.00
57568;BME280;43403;51.948;5.922;2023-06-22T04:41:08;101760.72;;;19.87;100.00
57568;BME280;43403;51.948;5.922;2023-06-22T04:43:40;101765.88;;;19.89;100.00
57568;BME280;43403;51.948;5.922;2023-06-22T04:46:07;101762.84;;;19.92;100.00
57568;BME280;43403;51.948;5.922;2023-06-22T04:48:33;101767.59;;;19.97;100.00
57568;BME280;43403;51.948;5.922;2023-06-22T04:51:01;101755.13;;;19.97;100.00
57568;BME280;43403;51.948;5.922;2023-06-22T04:53:31;101757.25;;;20.02;100.00
57568;BME280;43403;51.948;5.922;2023-06-22T04:55:58;101752.09;;;20.00;100.00
57568;BME280;43403;51.948;5.922;2023-06-22T04:58:24;101764.03;;;20.04;100.00
57568;BME280;43403;51.948;5.922;2023-06-22T05:00:53;101755.56;;;20.01;100.00
57568;BME280;43403;51.948;5.922;2023-06-22T05:03:20;101757.50;;;20.07;100.00
57568;BME280;43403;51.948;5.922;2023-06-22T05:05:46;101755.09;;;20.12;100.00
57568;BME280;43403;51.948;5.922;2023-06-22T05:08:13;101749.19;;;20.17;100.00
57568;BME280;43403;51.948;5.922;2023-06-22T05:10:40;101755.16;;;20.19;100.00
57568;BME280;43403;51.948;5.922;2023-06-22T05:13:26;101746.81;;;20.22;100.00
57568;BME280;43403;51.948;5.922;2023-06-22T05:15:53;101752.84;;;20.30;100.00
57568;BME280;43403;51.948;5.922;2023-06-22T05:18:28;101753.47;;;20.32;100.00
57568;BME280;43403;51.948;5.922;2023-06-22T05:20:55;101758.72;;;20.41;100.00
57568;BME280;43403;51.948;5.922;2023-06-22T05:23:22;101750.91;;;20.39;100.00
57568;BME280;43403;51.948;5.922;2023-06-22T05:25:49;101752.34;;;20.42;100.00
57568;BME280;43403;51.948;5.922;2023-06-22T05:28:15;101757.94;;;20.47;100.00
57568;BME280;43403;51.948;5.922;2023-06-22T05:30:42;101754.72;;;20.51;100.00
57568;BME280;43403;51.948;5.922;2023-06-22T05:33:08;101751.03;;;20.52;100.00
57568;BME280;43403;51.948;5.922;2023-06-22T05:35:35;101752.50;;;20.55;100.00
57568;BME280;43403;51.948;5.922;2023-06-22T05:38:01;101757.66;;;20.57;100.00
57568;BME280;43403;51.948;5.922;2023-06-22T05:40:28;101765.91;;;20.62;100.00
57568;BME280;43403;51.948;5.922;2023-06-22T05:42:55;101770.69;;;20.66;100.00
57568;BME280;43403;51.948;5.922;2023-06-22T05:45:21;101775.06;;;20.74;100.00
57568;BME280;43403;51.948;5.922;2023-06-22T05:47:48;101774.03;;;20.75;100.00
57568;BME280;43403;51.948;5.922;2023-06-22T05:50:14;101775.50;;;20.78;100.00
57568;BME280;43403;51.948;5.922;2023-06-22T05:52:41;101776.56;;;20.83;100.00
57568;BME280;43403;51.948;5.922;2023-06-22T05:55:08;101780.50;;;20.87;100.00
57568;BME280;43403;51.948;5.922;2023-06-22T05:57:35;101774.78;;;20.90;100.00
57568;BME280;43403;51.948;5.922;2023-06-22T06:00:01;101777.72;;;20.96;100.00
57568;BME280;43403;51.948;5.922;2023-06-22T06:02:29;101774.47;;;21.00;100.00
57568;BME280;43403;51.948;5.922;2023-06-22T06:04:55;101772.06;;;21.05;100.00
57568;BME280;43403;51.948;5.922;2023-06-22T06:07:22;101771.66;;;21.08;100.00
57568;BME280;43403;51.948;5.922;2023-06-22T06:09:49;101772.91;;;21.12;100.00
57568;BME280;43403;51.948;5.922;2023-06-22T06:12:15;101778.25;;;21.12;100.00
57568;BME280;43403;51.948;5.922;2023-06-22T06:14:42;101773.81;;;21.20;100.00
57568;BME280;43403;51.948;5.922;2023-06-22T06:17:08;101776.28;;;21.21;100.00
57568;BME280;43403;51.948;5.922;2023-06-22T06:19:34;101777.75;;;21.24;100.00
57568;BME280;43403;51.948;5.922;2023-06-22T06:22:01;101780.44;;;21.30;100.00
57568;BME280;43403;51.948;5.922;2023-06-22T06:24:28;101777.84;;;21.37;100.00
57568;BME280;43403;51.948;5.922;2023-06-22T06:26:54;101768.41;;;21.41;100.00
57568;BME280;43403;51.948;5.922;2023-06-22T06:29:21;101764.63;;;21.50;100.00
57568;BME280;43403;51.948;5.922;2023-06-22T06:31:50;101760.34;;;21.56;100.00
57568;BME280;43403;51.948;5.922;2023-06-22T06:34:20;101752.13;;;21.58;100.00
57568;BME280;43403;51.948;5.922;2023-06-22T06:36:46;101755.03;;;21.63;100.00
57568;BME280;43403;51.948;5.922;2023-06-22T06:39:13;101755.91;;;21.70;100.00
57568;BME280;43403;51.948;5.922;2023-06-22T06:41:39;101758.41;;;21.78;100.00
57568;BME280;43403;51.948;5.922;2023-06-22T06:44:06;101754.13;;;21.84;100.00
57568;BME280;43403;51.948;5.922;2023-06-22T06:46:32;101744.25;;;21.91;100.00
57568;BME280;43403;51.948;5.922;2023-06-22T06:48:59;101750.09;;;22.01;100.00
57568;BME280;43403;51.948;5.922;2023-06-22T06:51:26;101751.09;;;22.07;100.00
57568;BME280;43403;51.948;5.922;2023-06-22T06:53:52;101753.19;;;22.18;100.00
57568;BME280;43403;51.948;5.922;2023-06-22T06:56:19;101748.31;;;22.28;100.00
57568;BME280;43403;51.948;5.922;2023-06-22T06:58:46;101744.63;;;22.36;100.00
57568;BME280;43403;51.948;5.922;2023-06-22T07:01:12;101742.00;;;22.43;100.00
57568;BME280;43403;51.948;5.922;2023-06-22T07:03:39;101745.91;;;22.47;100.00
57568;BME280;43403;51.948;5.922;2023-06-22T07:06:06;101736.69;;;22.56;100.00
57568;BME280;43403;51.948;5.922;2023-06-22T07:08:32;101735.44;;;22.59;100.00
57568;BME280;43403;51.948;5.922;2023-06-22T07:10:59;101736.28;;;22.66;100.00
57568;BME280;43403;51.948;5.922;2023-06-22T07:13:27;101740.81;;;22.72;100.00
57568;BME280;43403;51.948;5.922;2023-06-22T07:15:53;101737.09;;;22.80;100.00
57568;BME280;43403;51.948;5.922;2023-06-22T07:18:20;101732.56;;;22.94;100.00
57568;BME280;43403;51.948;5.922;2023-06-22T07:20:46;101731.16;;;23.04;100.00
57568;BME280;43403;51.948;5.922;2023-06-22T07:23:13;101736.91;;;23.15;100.00
57568;BME280;43403;51.948;5.922;2023-06-22T07:25:40;101729.69;;;23.22;100.00
57568;BME280;43403;51.948;5.922;2023-06-22T07:28:07;101728.84;;;23.28;100.00
57568;BME280;43403;51.948;5.922;2023-06-22T07:30:34;101717.91;;;23.36;100.00
57568;BME280;43403;51.948;5.922;2023-06-22T07:33:01;101711.94;;;23.41;100.00
57568;BME280;43403;51.948;5.922;2023-06-22T07:35:36;101709.66;;;23.51;100.00
57568;BME280;43403;51.948;5.922;2023-06-22T07:38:02;101711.06;;;23.60;100.00
57568;BME280;43403;51.948;5.922;2023-06-22T07:40:32;101710.81;;;23.68;100.00
57568;BME280;43403;51.948;5.922;2023-06-22T07:43:02;101709.97;;;23.75;100.00
57568;BME280;43403;51.948;5.922;2023-06-22T07:45:29;101707.06;;;23.90;97.70
57568;BME280;43403;51.948;5.922;2023-06-22T07:47:56;101694.88;;;23.94;100.00
57568;BME280;43403;51.948;5.922;2023-06-22T07:50:22;101698.78;;;23.98;99.26
57568;BME280;43403;51.948;5.922;2023-06-22T07:52:49;101704.28;;;24.10;98.34
57568;BME280;43403;51.948;5.922;2023-06-22T07:55:16;101706.50;;;24.13;96.61
57568;BME280;43403;51.948;5.922;2023-06-22T07:57:42;101698.44;;;24.19;96.38
57568;BME280;43403;51.948;5.922;2023-06-22T08:00:10;101702.34;;;24.23;92.39
57568;BME280;43403;51.948;5.922;2023-06-22T08:02:42;101694.91;;;24.25;92.82
57568;BME280;43403;51.948;5.922;2023-06-22T08:05:10;101703.72;;;24.33;91.98
57568;BME280;43403;51.948;5.922;2023-06-22T08:07:47;101699.56;;;24.37;90.11
57568;BME280;43403;51.948;5.922;2023-06-22T08:10:15;101698.91;;;24.41;90.18
57568;BME280;43403;51.948;5.922;2023-06-22T08:12:42;101691.03;;;24.46;91.55
57568;BME280;43403;51.948;5.922;2023-06-22T08:15:09;101683.56;;;24.55;89.03
57568;BME280;43403;51.948;5.922;2023-06-22T08:17:40;101687.25;;;24.61;88.34
57568;BME280;43403;51.948;5.922;2023-06-22T08:20:07;101674.81;;;24.66;87.28
57568;BME280;43403;51.948;5.922;2023-06-22T08:22:41;101671.06;;;24.67;85.67
57568;BME280;43403;51.948;5.922;2023-06-22T08:25:08;101658.25;;;24.70;88.15
57568;BME280;43403;51.948;5.922;2023-06-22T08:27:35;101660.44;;;24.79;87.36
57568;BME280;43403;51.948;5.922;2023-06-22T08:30:02;101656.91;;;24.85;86.01
57568;BME280;43403;51.948;5.922;2023-06-22T08:32:29;101647.97;;;24.92;86.21
57568;BME280;43403;51.948;5.922;2023-06-22T08:34:56;101644.31;;;25.04;84.42
57568;BME280;43403;51.948;5.922;2023-06-22T08:37:24;101640.75;;;25.29;84.39
57568;BME280;43403;51.948;5.922;2023-06-22T08:39:58;101645.50;;;25.45;84.55
57568;BME280;43403;51.948;5.922;2023-06-22T08:42:26;101642.28;;;25.55;85.56
57568;BME280;43403;51.948;5.922;2023-06-22T08:44:52;101647.44;;;25.57;82.62
57568;BME280;43403;51.948;5.922;2023-06-22T08:47:20;101652.72;;;25.63;85.03
57568;BME280;43403;51.948;5.922;2023-06-22T08:49:48;101654.97;;;25.67;81.18
57568;BME280;43403;51.948;5.922;2023-06-22T08:52:14;101655.94;;;25.72;82.02
57568;BME280;43403;51.948;5.922;2023-06-22T08:54:41;101658.97;;;25.76;79.18
57568;BME280;43403;51.948;5.922;2023-06-22T08:57:08;101657.00;;;25.83;78.69
57568;BME280;43403;51.948;5.922;2023-06-22T08:59:34;101652.78;;;25.94;77.47
57568;BME280;43403;51.948;5.922;2023-06-22T09:02:01;101651.84;;;26.00;74.15
57568;BME280;43403;51.948;5.922;2023-06-22T09:04:27;101646.94;;;26.09;76.24
57568;BME280;43403;51.948;5.922;2023-06-22T09:06:54;101642.75;;;26.13;73.54
57568;BME280;43403;51.948;5.922;2023-06-22T09:09:21;101643.50;;;26.43;74.39
57568;BME280;43403;51.948;5.922;2023-06-22T09:11:48;101636.41;;;26.73;70.90
57568;BME280;43403;51.948;5.922;2023-06-22T09:14:15;101644.34;;;26.91;71.47
57568;BME280;43403;51.948;5.922;2023-06-22T09:16:41;101641.41;;;27.05;70.46
57568;BME280;43403;51.948;5.922;2023-06-22T09:19:08;101645.84;;;27.11;69.16
57568;BME280;43403;51.948;5.922;2023-06-22T09:21:34;101633.66;;;27.20;67.60
57568;BME280;43403;51.948;5.922;2023-06-22T09:24:01;101639.22;;;27.42;67.35
57568;BME280;43403;51.948;5.922;2023-06-22T09:26:28;101627.88;;;27.40;63.43
57568;BME280;43403;51.948;5.922;2023-06-22T09:28:54;101630.00;;;27.38;64.09
57568;BME280;43403;51.948;5.922;2023-06-22T09:31:21;101617.38;;;27.38;62.59
57568;BME280;43403;51.948;5.922;2023-06-22T09:33:55;101615.88;;;27.31;60.59
57568;BME280;43403;51.948;5.922;2023-06-22T09:36:21;101619.84;;;27.28;62.67
57568;BME280;43403;51.948;5.922;2023-06-22T09:38:48;101617.84;;;27.23;62.54
57568;BME280;43403;51.948;5.922;2023-06-22T09:41:15;101619.72;;;27.23;62.41
57568;BME280;43403;51.948;5.922;2023-06-22T09:43:42;101619.25;;;27.14;63.19
57568;BME280;43403;51.948;5.922;2023-06-22T09:46:09;101625.72;;;27.13;63.19
57568;BME280;43403;51.948;5.922;2023-06-22T09:48:35;101623.25;;;27.12;62.79
57568;BME280;43403;51.948;5.922;2023-06-22T09:51:06;101620.34;;;27.01;61.77
57568;BME280;43403;51.948;5.922;2023-06-22T09:53:32;101613.81;;;26.97;62.05
57568;BME280;43403;51.948;5.922;2023-06-22T09:56:01;101612.19;;;26.85;61.50
57568;BME280;43403;51.948;5.922;2023-06-22T09:58:28;101615.44;;;26.87;60.94
57568;BME280;43403;51.948;5.922;2023-06-22T10:00:54;101620.03;;;26.86;61.63
57568;BME280;43403;51.948;5.922;2023-06-22T10:03:21;101621.31;;;26.83;60.85
57568;BME280;43403;51.948;5.922;2023-06-22T10:05:48;101623.09;;;26.78;60.34
57568;BME280;43403;51.948;5.922;2023-06-22T10:08:14;101619.22;;;26.74;60.89
57568;BME280;43403;51.948;5.922;2023-06-22T10:10:41;101625.78;;;26.66;60.70
57568;BME280;43403;51.948;5.922;2023-06-22T10:13:09;101620.63;;;26.65;61.83
57568;BME280;43403;51.948;5.922;2023-06-22T10:15:39;101620.63;;;26.65;61.95
57568;BME280;43403;51.948;5.922;2023-06-22T10:18:05;101609.34;;;26.56;59.34
57568;BME280;43403;51.948;5.922;2023-06-22T10:20:32;101618.00;;;26.58;61.33
57568;BME280;43403;51.948;5.922;2023-06-22T10:22:58;101607.25;;;26.58;60.45
57568;BME280;43403;51.948;5.922;2023-06-22T10:25:26;101607.88;;;26.60;61.91
57568;BME280;43403;51.948;5.922;2023-06-22T10:27:53;101605.44;;;26.58;62.82
57568;BME280;43403;51.948;5.922;2023-06-22T10:30:20;101600.97;;;26.64;61.55
57568;BME280;43403;51.948;5.922;2023-06-22T10:32:47;101600.63;;;26.60;61.17
57568;BME280;43403;51.948;5.922;2023-06-22T10:35:14;101595.25;;;26.60;61.24
57568;BME280;43403;51.948;5.922;2023-06-22T10:37:43;101595.56;;;26.52;60.52
57568;BME280;43403;51.948;5.922;2023-06-22T10:40:15;101594.06;;;26.56;62.20
57568;BME280;43403;51.948;5.922;2023-06-22T10:42:42;101598.25;;;26.52;63.15
57568;BME280;43403;51.948;5.922;2023-06-22T10:45:09;101604.22;;;26.54;62.33
57568;BME280;43403;51.948;5.922;2023-06-22T10:47:36;101598.50;;;26.51;63.90
57568;BME280;43403;51.948;5.922;2023-06-22T10:50:04;101604.47;;;26.53;64.96
57568;BME280;43403;51.948;5.922;2023-06-22T10:52:30;101598.94;;;26.48;66.11
57568;BME280;43403;51.948;5.922;2023-06-22T10:54:57;101594.38;;;26.48;64.61
57568;BME280;43403;51.948;5.922;2023-06-22T10:57:24;101589.72;;;26.43;63.69
57568;BME280;43403;51.948;5.922;2023-06-22T10:59:52;101592.63;;;26.42;63.30
57568;BME280;43403;51.948;5.922;2023-06-22T11:02:19;101594.88;;;26.45;64.62
57568;BME280;43403;51.948;5.922;2023-06-22T11:04:46;101595.31;;;26.42;64.56
57568;BME280;43403;51.948;5.922;2023-06-22T11:07:15;101590.78;;;26.42;63.41
57568;BME280;43403;51.948;5.922;2023-06-22T11:09:43;101587.84;;;26.44;65.55
57568;BME280;43403;51.948;5.922;2023-06-22T11:12:10;101589.47;;;26.45;64.71
57568;BME280;43403;51.948;5.922;2023-06-22T11:14:37;101581.53;;;26.38;62.81
57568;BME280;43403;51.948;5.922;2023-06-22T11:17:04;101583.53;;;26.31;64.48
57568;BME280;43403;51.948;5.922;2023-06-22T11:19:31;101580.13;;;26.24;66.33
57568;BME280;43403;51.948;5.922;2023-06-22T11:21:57;101575.44;;;26.19;69.68
57568;BME280;43403;51.948;5.922;2023-06-22T11:24:24;101584.44;;;26.13;70.76
57568;BME280;43403;51.948;5.922;2023-06-22T11:26:51;101581.41;;;26.10;72.72
57568;BME280;43403;51.948;5.922;2023-06-22T11:29:17;101588.16;;;26.00;77.21
57568;BME280;43403;51.948;5.922;2023-06-22T11:31:57;101588.72;;;25.91;79.73
57568;BME280;43403;51.948;5.922;2023-06-22T11:34:24;101594.16;;;25.84;81.86
57568;BME280;43403;51.948;5.922;2023-06-22T11:36:51;101594.78;;;25.68;83.24
57568;BME280;43403;51.948;5.922;2023-06-22T11:39:17;101601.19;;;25.55;83.23
57568;BME280;43403;51.948;5.922;2023-06-22T11:41:55;101599.41;;;25.49;83.00
57568;BME280;43403;51.948;5.922;2023-06-22T11:44:21;101603.00;;;25.42;87.44
57568;BME280;43403;51.948;5.922;2023-06-22T11:46:48;101594.53;;;25.27;89.76
57568;BME280;43403;51.948;5.922;2023-06-22T11:49:14;101598.91;;;25.21;89.38
57568;BME280;43403;51.948;5.922;2023-06-22T11:51:41;101598.03;;;25.09;82.40
57568;BME280;43403;51.948;5.922;2023-06-22T11:54:10;101586.75;;;25.00;88.71
57568;BME280;43403;51.948;5.922;2023-06-22T11:56:36;101588.25;;;24.96;90.95
57568;BME280;43403;51.948;5.922;2023-06-22T11:59:03;101597.25;;;24.83;91.02
57568;BME280;43403;51.948;5.922;2023-06-22T12:01:29;101590.94;;;24.78;97.49
57568;BME280;43403;51.948;5.922;2023-06-22T12:03:56;101592.69;;;24.65;100.00
57568;BME280;43403;51.948;5.922;2023-06-22T12:06:22;101591.28;;;24.63;100.00
57568;BME280;43403;51.948;5.922;2023-06-22T12:08:49;101594.25;;;24.55;100.00
57568;BME280;43403;51.948;5.922;2023-06-22T12:11:16;101598.66;;;24.42;100.00
57568;BME280;43403;51.948;5.922;2023-06-22T12:13:42;101590.88;;;24.34;100.00
57568;BME280;43403;51.948;5.922;2023-06-22T12:16:09;101585.91;;;24.13;100.00
57568;BME280;43403;51.948;5.922;2023-06-22T12:18:35;101582.69;;;24.04;100.00
57568;BME280;43403;51.948;5.922;2023-06-22T12:21:02;101595.13;;;23.92;100.00
57568;BME280;43403;51.948;5.922;2023-06-22T12:23:28;101596.84;;;23.79;100.00
57568;BME280;43403;51.948;5.922;2023-06-22T12:25:54;101603.50;;;23.70;100.00
57568;BME280;43403;51.948;5.922;2023-06-22T12:28:21;101597.72;;;23.66;100.00
57568;BME280;43403;51.948;5.922;2023-06-22T12:30:49;101598.16;;;23.63;100.00
57568;BME280;43403;51.948;5.922;2023-06-22T12:33:16;101601.28;;;23.60;100.00
57568;BME280;43403;51.948;5.922;2023-06-22T12:35:43;101596.53;;;23.62;100.00
57568;BME280;43403;51.948;5.922;2023-06-22T12:38:11;101589.94;;;23.58;100.00
57568;BME280;43403;51.948;5.922;2023-06-22T12:40:38;101571.84;;;23.54;100.00
57568;BME280;43403;51.948;5.922;2023-06-22T12:43:04;101571.69;;;23.48;100.00
57568;BME280;43403;51.948;5.922;2023-06-22T12:45:31;101570.88;;;23.41;100.00
57568;BME280;43403;51.948;5.922;2023-06-22T12:48:00;101569.47;;;23.32;100.00
57568;BME280;43403;51.948;5.922;2023-06-22T12:50:26;101555.47;;;23.30;100.00